createdAt,value
2022-08-14T00:02:27.290Z,17.82
2022-08-14T00:04:55.803Z,17.88
2022-08-14T00:07:23.586Z,17.69
2022-08-14T00:10:02.578Z,17.42
2022-08-14T00:12:42.163Z,17.91
2022-08-14T00:15:43.435Z,17.93
2022-08-14T00:19:05.341Z,17.74
2022-08-14T00:21:05.107Z,17.94
2022-08-14T00:23:39.798Z,18.06
2022-08-14T00:26:08.322Z,17.95
2022-08-14T00:28:50.235Z,17.80
2022-08-14T00:31:19.938Z,17.81
2022-08-14T00:34:36.577Z,17.82
2022-08-14T00:36:51.346Z,17.76
2022-08-14T00:39:18.952Z,17.71
2022-08-14T00:41:48.583Z,17.67
2022-08-14T00:44:21.542Z,17.70
2022-08-14T00:47:02.828Z,17.80
2022-08-14T00:49:38.155Z,17.87
2022-08-14T00:52:18.421Z,17.80
2022-08-14T00:54:57.956Z,17.80
2022-08-14T00:57:32.058Z,17.83
2022-08-14T01:00:00.735Z,17.81
2022-08-14T01:02:31.952Z,17.47
2022-08-14T01:05:01.551Z,17.68
2022-08-14T01:07:47.400Z,17.51
2022-08-14T01:10:18.825Z,17.84
2022-08-14T01:12:48.850Z,17.86
2022-08-14T01:15:21.490Z,17.89
2022-08-14T01:18:27.925Z,17.78
2022-08-14T01:21:13.394Z,17.98
2022-08-14T01:23:46.940Z,17.95
2022-08-14T01:26:34.443Z,17.96
2022-08-14T01:29:06.548Z,17.89
2022-08-14T01:31:41.930Z,17.98
2022-08-14T01:35:18.446Z,17.95
2022-08-14T01:36:59.934Z,18.04
2022-08-14T01:39:32.282Z,17.99
2022-08-14T01:42:01.811Z,18.07
2022-08-14T01:44:34.021Z,17.66
2022-08-14T01:47:21.965Z,17.65
2022-08-14T01:50:01.446Z,17.86
2022-08-14T01:52:59.739Z,17.95
2022-08-14T01:55:32.321Z,17.92
2022-08-14T01:58:20.092Z,17.61
2022-08-14T02:00:55.545Z,17.77
2022-08-14T02:03:29.543Z,17.47
2022-08-14T02:06:04.098Z,17.42
2022-08-14T02:08:53.292Z,17.78
2022-08-14T02:11:24.351Z,17.91
2022-08-14T02:14:08.406Z,17.72
2022-08-14T02:16:41.920Z,17.66
2022-08-14T02:19:14.897Z,17.67
2022-08-14T02:21:49.031Z,17.76
2022-08-14T02:24:39.859Z,17.62
2022-08-14T02:28:23.110Z,17.71
2022-08-14T02:30:02.064Z,17.69
2022-08-14T02:32:36.165Z,17.71
2022-08-14T02:35:21.833Z,17.34
2022-08-14T02:37:50.875Z,17.66
2022-08-14T02:40:20.613Z,17.58
2022-08-14T02:43:02.379Z,17.44
2022-08-14T02:45:37.961Z,17.63
2022-08-14T02:49:01.097Z,17.65
2022-08-14T02:51:01.029Z,17.44
2022-08-14T02:53:31.103Z,17.66
2022-08-14T02:56:02.742Z,17.51
2022-08-14T02:58:34.465Z,17.50
2022-08-14T03:01:09.190Z,17.62
2022-08-14T03:03:38.760Z,17.77
2022-08-14T03:06:10.460Z,17.54
2022-08-14T03:08:39.558Z,17.37
2022-08-14T03:11:15.359Z,17.53
2022-08-14T03:13:49.473Z,17.56
2022-08-14T03:16:26.827Z,17.49
2022-08-14T03:19:00.769Z,17.68
2022-08-14T03:21:33.394Z,17.66
2022-08-14T03:24:16.674Z,17.61
2022-08-14T03:26:57.281Z,17.65
2022-08-14T03:29:29.617Z,17.60
2022-08-14T03:31:59.431Z,17.58
2022-08-14T03:34:48.056Z,17.63
2022-08-14T03:37:39.353Z,17.53
2022-08-14T03:40:03.183Z,17.37
2022-08-14T03:42:35.745Z,17.58
2022-08-14T03:45:25.665Z,17.45
2022-08-14T03:47:58.864Z,17.47
2022-08-14T03:50:31.499Z,17.74
2022-08-14T03:53:02.176Z,17.67
2022-08-14T03:55:30.863Z,17.75
2022-08-14T03:58:00.690Z,17.80
2022-08-14T04:00:43.108Z,17.51
2022-08-14T04:03:23.636Z,17.89
2022-08-14T04:05:52.101Z,17.69
2022-08-14T04:08:29.217Z,17.72
2022-08-14T04:11:01.107Z,17.81
2022-08-14T04:13:34.285Z,17.81
2022-08-14T04:16:06.874Z,17.80
2022-08-14T04:18:46.579Z,17.86
2022-08-14T04:21:16.398Z,17.87
2022-08-14T04:23:49.202Z,17.75
2022-08-14T04:26:42.945Z,17.69
2022-08-14T04:29:16.308Z,17.72
2022-08-14T04:32:58.864Z,17.93
2022-08-14T04:34:36.482Z,17.73
2022-08-14T04:37:25.416Z,17.94
2022-08-14T04:40:15.108Z,17.97
2022-08-14T04:43:01.841Z,17.97
2022-08-14T04:45:41.996Z,18.02
2022-08-14T04:48:39.928Z,18.00
2022-08-14T04:51:08.655Z,18.02
2022-08-14T04:53:41.120Z,18.00
2022-08-14T04:56:31.354Z,17.99
2022-08-14T04:59:09.489Z,17.99
2022-08-14T05:01:48.983Z,17.99
2022-08-14T05:04:20.878Z,17.97
2022-08-14T05:06:55.169Z,18.04
2022-08-14T05:09:28.911Z,18.07
2022-08-14T05:12:33.932Z,18.08
2022-08-14T05:14:55.076Z,18.01
2022-08-14T05:17:28.680Z,17.96
2022-08-14T05:21:55.655Z,17.97
2022-08-14T05:22:56.055Z,18.07
2022-08-14T05:25:23.911Z,18.11
2022-08-14T05:27:52.909Z,17.92
2022-08-14T05:30:25.776Z,18.24
2022-08-14T05:32:55.839Z,18.14
2022-08-14T05:35:23.182Z,18.13
2022-08-14T05:37:51.175Z,18.31
2022-08-14T05:40:18.634Z,18.28
2022-08-14T05:42:46.502Z,18.09
2022-08-14T05:45:20.941Z,18.42
2022-08-14T05:47:50.947Z,18.49
2022-08-14T05:50:19.897Z,18.32
2022-08-14T05:52:51.100Z,18.55
2022-08-14T05:55:22.029Z,18.36
2022-08-14T05:57:57.837Z,18.66
2022-08-14T06:00:38.750Z,18.67
2022-08-14T06:03:14.942Z,18.60
2022-08-14T06:05:47.573Z,18.75
2022-08-14T06:08:35.830Z,18.80
2022-08-14T06:11:09.338Z,18.82
2022-08-14T06:13:44.690Z,18.87
2022-08-14T06:16:17.810Z,18.86
2022-08-14T06:18:52.332Z,18.87
2022-08-14T06:21:23.118Z,18.88
2022-08-14T06:23:51.648Z,18.96
2022-08-14T06:26:22.122Z,18.85
2022-08-14T06:28:52.781Z,19.04
2022-08-14T06:31:22.599Z,18.89
2022-08-14T06:35:02.676Z,19.13
2022-08-14T06:36:39.789Z,19.10
2022-08-14T06:39:10.051Z,18.87
2022-08-14T06:41:59.322Z,19.08
2022-08-14T06:44:30.668Z,19.25
2022-08-14T06:47:02.879Z,19.29
2022-08-14T06:49:42.698Z,19.26
2022-08-14T06:52:16.245Z,19.30
2022-08-14T06:54:46.322Z,19.40
2022-08-14T06:57:13.777Z,19.40
2022-08-14T06:59:42.247Z,19.43
2022-08-14T07:02:29.358Z,19.37
2022-08-14T07:05:22.974Z,19.54
2022-08-14T07:07:51.292Z,19.51
2022-08-14T07:10:19.100Z,19.51
2022-08-14T07:13:01.941Z,19.59
2022-08-14T07:15:39.574Z,19.53
2022-08-14T07:18:10.517Z,19.60
2022-08-14T07:20:39.968Z,19.46
2022-08-14T07:23:19.823Z,19.54
2022-08-14T07:25:51.685Z,19.46
2022-08-14T07:28:25.757Z,19.63
2022-08-14T07:31:04.698Z,19.43
2022-08-14T07:33:37.153Z,19.66
2022-08-14T07:36:27.501Z,19.66
2022-08-14T07:39:00.799Z,19.66
2022-08-14T07:41:33.890Z,19.71
2022-08-14T07:44:28.747Z,19.77
2022-08-14T07:46:52.173Z,19.76
2022-08-14T07:49:21.473Z,19.81
2022-08-14T07:51:52.458Z,19.67
2022-08-14T07:54:23.171Z,19.88
2022-08-14T07:57:12.035Z,19.85
2022-08-14T07:59:46.972Z,19.87
2022-08-14T08:02:20.618Z,19.85
2022-08-14T08:04:55.359Z,19.88
2022-08-14T08:07:31.338Z,20.01
2022-08-14T08:10:46.320Z,19.93
2022-08-14T08:13:16.105Z,19.90
2022-08-14T08:15:46.877Z,20.01
2022-08-14T08:18:27.305Z,20.09
2022-08-14T08:20:59.231Z,20.14
2022-08-14T08:23:40.652Z,20.13
2022-08-14T08:26:19.155Z,20.13
2022-08-14T08:28:59.449Z,20.25
2022-08-14T08:31:32.894Z,20.12
2022-08-14T08:34:06.543Z,20.17
2022-08-14T08:36:42.033Z,20.31
2022-08-14T08:39:22.176Z,20.40
2022-08-14T08:41:53.752Z,20.39
2022-08-14T08:44:32.891Z,20.46
2022-08-14T08:47:06.504Z,20.37
2022-08-14T08:49:52.951Z,20.52
2022-08-14T08:52:31.429Z,20.58
2022-08-14T08:55:04.934Z,20.45
2022-08-14T08:57:37.986Z,20.63
2022-08-14T09:00:25.394Z,20.42
2022-08-14T09:03:03.309Z,20.67
2022-08-14T09:05:35.294Z,20.69
2022-08-14T09:08:26.525Z,20.78
2022-08-14T09:11:19.857Z,20.84
2022-08-14T09:13:53.686Z,20.93
2022-08-14T09:16:25.849Z,20.97
2022-08-14T09:18:55.030Z,21.07
2022-08-14T09:21:24.099Z,21.12
2022-08-14T09:24:28.617Z,20.96
2022-08-14T09:26:49.507Z,21.18
2022-08-14T09:29:22.832Z,21.17
2022-08-14T09:31:58.051Z,21.26
2022-08-14T09:34:57.724Z,21.43
2022-08-14T09:37:26.584Z,21.42
2022-08-14T09:40:16.673Z,21.38
2022-08-14T09:43:10.427Z,21.39
2022-08-14T09:45:52.957Z,21.26
2022-08-14T09:48:27.554Z,21.37
2022-08-14T09:54:18.741Z,21.23
2022-08-14T09:56:46.316Z,21.26
2022-08-14T09:59:33.715Z,21.31
2022-08-14T10:02:07.937Z,21.36
2022-08-14T10:04:41.234Z,21.09
2022-08-14T10:07:14.285Z,21.34
2022-08-14T10:09:59.515Z,21.16
2022-08-14T10:12:45.164Z,21.32
2022-08-14T10:15:25.378Z,21.29
2022-08-14T10:18:17.636Z,21.17
2022-08-14T10:21:10.813Z,21.21
2022-08-14T10:23:52.384Z,20.69
2022-08-14T10:26:23.108Z,21.15
2022-08-14T10:29:33.637Z,21.24
2022-08-14T10:32:03.219Z,21.16
2022-08-14T10:34:46.811Z,21.35
2022-08-14T10:37:23.653Z,21.19
2022-08-14T10:40:10.674Z,21.44
2022-08-14T10:42:50.231Z,21.31
2022-08-14T10:45:24.384Z,21.43
2022-08-14T10:48:09.429Z,21.48
2022-08-14T10:50:49.809Z,21.34
2022-08-14T10:53:29.141Z,21.22
2022-08-14T10:56:04.593Z,21.38
2022-08-14T10:58:34.490Z,21.22
2022-08-14T11:01:06.257Z,20.95
2022-08-14T11:03:55.996Z,21.14
2022-08-14T11:06:27.214Z,21.01
2022-08-14T11:08:56.368Z,21.22
2022-08-14T11:11:37.092Z,21.08
2022-08-14T11:14:09.284Z,21.22
2022-08-14T11:16:40.768Z,21.15
2022-08-14T11:19:11.137Z,20.84
2022-08-14T11:21:45.816Z,21.18
2022-08-14T11:24:55.159Z,21.17
2022-08-14T11:27:06.218Z,21.11
2022-08-14T11:29:36.331Z,21.00
2022-08-14T11:32:07.131Z,20.87
2022-08-14T11:34:38.376Z,20.93
2022-08-14T11:37:18.158Z,20.83
2022-08-14T11:39:51.478Z,20.75
2022-08-14T11:42:58.038Z,20.41
2022-08-14T11:45:18.721Z,20.66
2022-08-14T11:48:13.176Z,20.69
2022-08-14T11:50:37.947Z,20.58
2022-08-14T11:53:23.008Z,20.59
2022-08-14T11:56:03.793Z,20.32
2022-08-14T11:58:37.635Z,20.36
2022-08-14T12:01:09.722Z,20.39
2022-08-14T12:03:57.037Z,20.51
2022-08-14T12:06:39.238Z,20.45
2022-08-14T12:09:14.796Z,20.29
2022-08-14T12:11:47.440Z,20.34
2022-08-14T12:14:34.600Z,20.18
2022-08-14T12:17:12.055Z,19.66
2022-08-14T12:19:51.113Z,19.88
2022-08-14T12:22:42.282Z,19.89
2022-08-14T12:25:20.366Z,19.86
2022-08-14T12:27:53.273Z,19.81
2022-08-14T12:30:44.223Z,19.72
2022-08-14T12:33:33.976Z,19.91
2022-08-14T12:36:06.038Z,19.91
2022-08-14T12:38:48.679Z,19.94
2022-08-14T12:41:28.018Z,19.91
2022-08-14T12:44:02.875Z,19.97
2022-08-14T12:46:43.698Z,20.02
2022-08-14T12:49:17.741Z,19.94
2022-08-14T12:52:12.319Z,20.10
2022-08-14T12:54:56.089Z,20.19
2022-08-14T12:57:37.487Z,20.04
2022-08-14T13:00:23.017Z,20.09
2022-08-14T13:02:55.238Z,20.14
2022-08-14T13:05:27.426Z,20.19
2022-08-14T13:07:59.058Z,20.22
2022-08-14T13:10:47.218Z,20.23
2022-08-14T13:13:19.007Z,20.26
2022-08-14T13:15:57.462Z,20.16
2022-08-14T13:18:30.106Z,20.15
2022-08-14T13:21:04.324Z,20.19
2022-08-14T13:23:36.216Z,19.64
2022-08-14T13:26:05.191Z,20.15
2022-08-14T13:29:00.474Z,20.04
2022-08-14T13:31:29.933Z,20.21
2022-08-14T13:34:00.729Z,20.10
2022-08-14T13:36:54.656Z,20.00
2022-08-14T13:39:21.216Z,20.22
2022-08-14T13:41:55.643Z,20.02
2022-08-14T13:44:27.528Z,20.28
2022-08-14T13:46:55.734Z,20.26
2022-08-14T13:49:24.604Z,20.32
2022-08-14T13:51:59.335Z,20.34
2022-08-14T13:54:32.849Z,20.35
2022-08-14T13:57:03.794Z,20.38
2022-08-14T13:59:38.016Z,20.28
2022-08-14T14:02:08.074Z,20.35
2022-08-14T14:04:43.267Z,20.31
2022-08-14T14:07:23.340Z,20.21
2022-08-14T14:09:56.431Z,20.03
2022-08-14T14:12:37.898Z,20.18
2022-08-14T14:15:12.482Z,20.27
2022-08-14T14:17:44.361Z,20.32
2022-08-14T14:20:34.373Z,20.36
2022-08-14T14:23:09.734Z,20.09
2022-08-14T14:25:51.481Z,20.24
2022-08-14T14:28:31.832Z,20.29
2022-08-14T14:31:06.878Z,20.20
2022-08-14T14:33:51.613Z,20.12
2022-08-14T14:36:23.602Z,20.22
2022-08-14T14:39:08.005Z,19.91
2022-08-14T14:41:44.104Z,20.21
2022-08-14T14:44:15.802Z,20.51
2022-08-14T14:46:51.029Z,20.46
2022-08-14T14:49:31.775Z,20.37
2022-08-14T14:52:23.283Z,20.26
2022-08-14T14:54:59.380Z,20.30
2022-08-14T14:57:35.049Z,20.52
2022-08-14T15:00:19.503Z,20.58
2022-08-14T15:02:53.343Z,20.55
2022-08-14T15:05:28.442Z,20.53
2022-08-14T15:07:56.450Z,20.40
2022-08-14T15:10:26.998Z,20.50
2022-08-14T15:13:04.029Z,20.39
2022-08-14T15:15:36.827Z,20.31
2022-08-14T15:18:36.253Z,20.35
2022-08-14T15:21:01.397Z,20.04
2022-08-14T15:23:43.891Z,20.37
2022-08-14T15:26:23.398Z,20.23
2022-08-14T15:29:02.723Z,20.48
2022-08-14T15:31:36.438Z,20.46
2022-08-14T15:34:46.111Z,20.30
2022-08-14T15:44:58.283Z,20.81
2022-08-14T15:47:33.022Z,20.73
2022-08-14T15:50:05.927Z,20.20
2022-08-14T15:52:37.213Z,20.35
2022-08-14T15:55:13.008Z,20.59
2022-08-14T15:58:02.472Z,20.54
2022-08-14T16:00:55.152Z,20.28
2022-08-14T16:03:27.612Z,20.20
2022-08-14T16:06:11.051Z,20.23
2022-08-14T16:08:46.482Z,20.47
2022-08-14T16:11:19.367Z,20.32
2022-08-14T16:13:49.184Z,20.42
2022-08-14T16:16:51.024Z,20.42
2022-08-14T16:19:19.455Z,20.40
2022-08-14T16:22:02.060Z,20.37
2022-08-14T16:25:00.059Z,20.31
2022-08-14T16:27:41.205Z,20.31
2022-08-14T16:30:20.750Z,20.28
2022-08-14T16:32:59.362Z,20.28
2022-08-14T16:35:42.574Z,20.27
2022-08-14T16:38:45.688Z,20.25
2022-08-14T16:41:23.183Z,20.22
2022-08-14T16:43:58.904Z,20.19
2022-08-14T16:46:31.587Z,19.96
2022-08-14T16:49:02.700Z,20.12
2022-08-14T16:51:34.974Z,20.11
2022-08-14T16:54:20.694Z,19.92
2022-08-14T16:57:22.634Z,20.04
2022-08-14T16:59:57.077Z,20.02
2022-08-14T17:02:45.025Z,19.87
2022-08-14T17:05:29.026Z,19.96
2022-08-14T17:08:07.279Z,19.91
2022-08-14T17:10:51.631Z,19.86
2022-08-14T17:13:21.113Z,19.83
2022-08-14T17:16:24.948Z,19.83
2022-08-14T17:19:00.655Z,19.73
2022-08-14T17:21:41.562Z,19.67
2022-08-14T17:24:55.881Z,19.38
2022-08-14T17:27:03.989Z,19.57
2022-08-14T17:29:57.573Z,19.52
2022-08-14T17:32:44.478Z,19.20
2022-08-14T17:35:57.578Z,19.21
2022-08-14T17:38:38.621Z,19.33
2022-08-14T17:41:23.531Z,19.11
2022-08-14T17:46:43.682Z,19.17
2022-08-14T17:49:17.990Z,19.13
2022-08-14T17:52:17.082Z,19.10
2022-08-14T17:54:53.000Z,18.81
2022-08-14T17:57:30.507Z,18.61
2022-08-14T18:00:05.284Z,18.66
2022-08-14T18:02:34.090Z,18.54
2022-08-14T18:05:03.076Z,18.42
2022-08-14T18:07:59.320Z,18.45
2022-08-14T18:10:51.882Z,18.17
2022-08-14T18:13:10.843Z,18.41
2022-08-14T18:15:41.555Z,18.15
2022-08-14T18:18:11.989Z,18.25
2022-08-14T18:21:42.736Z,18.35
2022-08-14T18:23:30.621Z,18.21
2022-08-14T18:26:00.600Z,18.05
2022-08-14T18:28:51.619Z,18.15
2022-08-14T18:31:26.081Z,18.12
2022-08-14T18:34:31.081Z,18.19
2022-08-14T18:37:18.000Z,18.04
2022-08-14T18:40:02.036Z,17.97
2022-08-14T18:42:36.125Z,17.92
2022-08-14T18:45:15.667Z,17.85
2022-08-14T18:48:16.152Z,17.59
2022-08-14T18:50:54.041Z,17.78
2022-08-14T18:53:25.455Z,17.72
2022-08-14T18:56:09.536Z,17.72
2022-08-14T18:58:49.251Z,17.72
2022-08-14T19:01:30.472Z,17.50
2022-08-14T19:04:01.516Z,17.62
2022-08-14T19:06:38.205Z,17.65
2022-08-14T19:09:06.287Z,17.63
2022-08-14T19:11:46.479Z,17.61
2022-08-14T19:14:46.137Z,17.61
2022-08-14T19:17:42.304Z,17.51
2022-08-14T19:20:11.040Z,17.52
2022-08-14T19:22:40.984Z,17.43
2022-08-14T19:25:12.204Z,17.32
2022-08-14T19:27:46.512Z,17.53
2022-08-14T19:30:20.353Z,17.55
2022-08-14T19:32:56.072Z,17.50
2022-08-14T19:35:49.376Z,17.46
2022-08-14T19:38:52.211Z,17.45
2022-08-14T19:41:23.178Z,17.48
2022-08-14T19:43:57.031Z,17.44
2022-08-14T19:46:38.184Z,17.43
2022-08-14T19:50:24.379Z,17.35
2022-08-14T19:52:23.127Z,17.35
2022-08-14T19:54:53.625Z,17.32
2022-08-14T19:57:25.997Z,17.32
2022-08-14T20:00:28.082Z,17.08
2022-08-14T20:03:10.978Z,17.28
2022-08-14T20:05:45.399Z,17.27
2022-08-14T20:11:01.367Z,17.23
2022-08-14T20:12:00.656Z,17.18
2022-08-14T20:14:28.130Z,16.99
2022-08-14T20:17:06.323Z,17.09
2022-08-14T20:19:37.937Z,17.15
2022-08-14T20:22:36.537Z,17.13
2022-08-14T20:25:45.594Z,17.20
2022-08-14T20:28:32.234Z,17.06
2022-08-14T20:31:17.797Z,17.09
2022-08-14T20:34:24.280Z,17.06
2022-08-14T20:37:04.697Z,17.04
2022-08-14T20:39:54.749Z,16.98
2022-08-14T20:42:49.419Z,16.80
2022-08-14T20:45:29.136Z,17.00
2022-08-14T20:48:01.686Z,16.99
2022-08-14T20:50:36.691Z,16.96
2022-08-14T20:53:35.475Z,16.96
2022-08-14T20:56:28.928Z,16.77
2022-08-14T20:58:58.908Z,16.93
2022-08-14T21:01:33.118Z,16.90
2022-08-14T21:04:05.029Z,16.89
2022-08-14T21:07:24.480Z,16.66
2022-08-14T21:10:03.320Z,16.70
2022-08-14T21:12:33.646Z,16.62
2022-08-14T21:15:11.043Z,16.51
2022-08-14T21:17:41.579Z,16.73
2022-08-14T21:20:25.527Z,16.77
2022-08-14T21:22:56.594Z,16.37
2022-08-14T21:25:31.484Z,16.86
2022-08-14T21:28:04.211Z,16.81
2022-08-14T21:30:51.566Z,16.77
2022-08-14T21:33:21.622Z,16.88
2022-08-14T21:35:54.953Z,16.69
2022-08-14T21:38:34.301Z,16.91
2022-08-14T21:41:42.156Z,16.89
2022-08-14T21:44:18.120Z,16.89
2022-08-14T21:46:54.885Z,16.89
2022-08-14T21:49:33.834Z,16.84
2022-08-14T21:52:51.584Z,16.90
2022-08-14T21:55:09.395Z,16.91
2022-08-14T21:57:56.143Z,16.89
2022-08-14T22:00:35.176Z,16.65
2022-08-14T22:03:09.089Z,16.55
2022-08-14T22:05:39.283Z,16.82
2022-08-14T22:08:12.407Z,16.80
2022-08-14T22:10:46.531Z,16.77
2022-08-14T22:13:19.280Z,16.58
2022-08-14T22:15:50.057Z,16.75
2022-08-14T22:18:21.490Z,16.77
2022-08-14T22:20:53.454Z,16.75
2022-08-14T22:23:24.031Z,16.70
2022-08-14T22:25:55.416Z,16.60
2022-08-14T22:28:33.109Z,16.72
2022-08-14T22:31:10.673Z,16.73
2022-08-14T22:33:40.531Z,16.49
2022-08-14T22:36:34.328Z,16.65
2022-08-14T22:40:16.893Z,16.55
2022-08-14T22:42:23.037Z,16.35
2022-08-14T22:44:56.442Z,16.46
2022-08-14T22:47:40.566Z,16.29
2022-08-14T22:50:28.729Z,16.36
2022-08-14T22:52:59.948Z,16.48
2022-08-14T22:55:28.248Z,16.08
2022-08-14T22:57:55.843Z,15.92
2022-08-14T23:00:30.029Z,16.44
2022-08-14T23:03:01.921Z,16.39
2022-08-14T23:05:40.303Z,16.22
2022-08-14T23:09:00.011Z,16.40
2022-08-14T23:11:10.591Z,16.28
2022-08-14T23:13:40.823Z,16.24
2022-08-14T23:16:19.883Z,16.23
2022-08-14T23:18:54.123Z,16.21
2022-08-14T23:21:24.383Z,15.98
2022-08-14T23:23:57.281Z,16.04
2022-08-14T23:26:48.737Z,16.14
2022-08-14T23:29:17.970Z,16.03
2022-08-14T23:31:48.114Z,16.13
2022-08-14T23:34:21.413Z,16.05
2022-08-14T23:36:55.467Z,16.03
2022-08-14T23:39:30.134Z,16.14
2022-08-14T23:42:04.181Z,16.12
2022-08-14T23:44:35.180Z,15.88
2022-08-14T23:47:11.734Z,16.03
2022-08-14T23:50:03.703Z,15.89
2022-08-14T23:52:50.781Z,15.99
2022-08-14T23:55:29.726Z,15.94
2022-08-14T23:57:59.343Z,15.75
